EZY334 EGCC-EGPH
Flight info
| Callsign | EZY334 |
|---|---|
| Flight time | 0h 41m |
| Altitude | 22000 |
| Route | POL5R POL N601 INPIP INPIP1E |
| Aircraft | A319/M-SDE2E3FGHIJ1RWXY/C |
Departure
| Time | 2026-04-19 23:34 |
|---|---|
| Airport | Manchester Airport (EGCC) |
Arrival
| Time | 2026-04-20 00:15 |
|---|---|
| Airport | Edinburgh Airport (EGPH) |
| Time | Latitude | Longitude | Altitude | Speed | Heading |
|---|---|---|---|---|---|
| 2026-04-19 23:07 | 53.36066 | -2.26843 | 235 ft | 0 kts | 314° |
| 2026-04-19 23:23 | 53.36056 | -2.26826 | 233 ft | 4 kts | 318° |
| 2026-04-19 23:24 | 53.36035 | -2.26800 | 234 ft | 4 kts | 335° |
| 2026-04-19 23:24 | 53.36011 | -2.26790 | 235 ft | 4 kts | 22° |
| 2026-04-19 23:24 | 53.36001 | -2.26802 | 235 ft | 1 kts | 51° |
| 2026-04-19 23:24 | 53.35999 | -2.26804 | 235 ft | 0 kts | 51° |
| 2026-04-19 23:28 | 53.36002 | -2.26800 | 235 ft | 2 kts | 51° |
| 2026-04-19 23:29 | 53.36028 | -2.26746 | 235 ft | 10 kts | 51° |
| 2026-04-19 23:29 | 53.36068 | -2.26634 | 233 ft | 13 kts | 86° |
| 2026-04-19 23:29 | 53.36057 | -2.26497 | 234 ft | 13 kts | 64° |
| 2026-04-19 23:29 | 53.36119 | -2.26364 | 234 ft | 16 kts | 52° |
| 2026-04-19 23:30 | 53.36143 | -2.26291 | 234 ft | 0 kts | 83° |
| 2026-04-19 23:30 | 53.36143 | -2.26290 | 234 ft | 1 kts | 83° |
| 2026-04-19 23:31 | 53.36141 | -2.26270 | 234 ft | 4 kts | 105° |
| 2026-04-19 23:31 | 53.36120 | -2.26227 | 236 ft | 5 kts | 140° |
| 2026-04-19 23:31 | 53.36095 | -2.26193 | 238 ft | 3 kts | 140° |
| 2026-04-19 23:31 | 53.36091 | -2.26187 | 239 ft | 0 kts | 140° |
| 2026-04-19 23:32 | 53.36089 | -2.26185 | 240 ft | 1 kts | 140° |
| 2026-04-19 23:32 | 53.36073 | -2.26163 | 244 ft | 5 kts | 140° |
| 2026-04-19 23:32 | 53.36020 | -2.26162 | 249 ft | 12 kts | 223° |
| 2026-04-19 23:32 | 53.36000 | -2.26201 | 250 ft | 0 kts | 231° |
| 2026-04-19 23:33 | 53.35935 | -2.26337 | 251 ft | 56 kts | 231° |
| 2026-04-19 23:33 | 53.35476 | -2.27285 | 241 ft | 151 kts | 231° |
| 2026-04-19 23:34 | 53.34746 | -2.28799 | 800 ft | 174 kts | 232° |
| 2026-04-19 23:34 | 53.34018 | -2.30385 | 1790 ft | 172 kts | 232° |
| 2026-04-19 23:34 | 53.33261 | -2.32055 | 2365 ft | 191 kts | 232° |
| 2026-04-19 23:34 | 53.32458 | -2.33993 | 2827 ft | 215 kts | 244° |
| 2026-04-19 23:35 | 53.32172 | -2.36558 | 3305 ft | 240 kts | 275° |
| 2026-04-19 23:35 | 53.32796 | -2.39241 | 4008 ft | 258 kts | 309° |
| 2026-04-19 23:35 | 53.34238 | -2.41059 | 4756 ft | 265 kts | 338° |
| 2026-04-19 23:35 | 53.35981 | -2.42050 | 5565 ft | 264 kts | 344° |
| 2026-04-19 23:36 | 53.37148 | -2.42628 | 6402 ft | 264 kts | 345° |
| 2026-04-19 23:36 | 53.38918 | -2.43472 | 7571 ft | 265 kts | 344° |
| 2026-04-19 23:36 | 53.40695 | -2.44316 | 8711 ft | 266 kts | 343° |
| 2026-04-19 23:36 | 53.42473 | -2.45187 | 9870 ft | 267 kts | 343° |
| 2026-04-19 23:37 | 53.44307 | -2.46053 | 10573 ft | 286 kts | 348° |
| 2026-04-19 23:37 | 53.46376 | -2.46114 | 11014 ft | 311 kts | 8° |
| 2026-04-19 23:37 | 53.48438 | -2.44791 | 11799 ft | 326 kts | 28° |
| 2026-04-19 23:37 | 53.50271 | -2.42473 | 12743 ft | 332 kts | 34° |
| 2026-04-19 23:38 | 53.52095 | -2.40052 | 13688 ft | 336 kts | 34° |
| 2026-04-19 23:38 | 53.53947 | -2.37594 | 14564 ft | 341 kts | 34° |
| 2026-04-19 23:38 | 53.55819 | -2.35112 | 15378 ft | 345 kts | 34° |
| 2026-04-19 23:38 | 53.57712 | -2.32599 | 16205 ft | 349 kts | 33° |
| 2026-04-19 23:39 | 53.59628 | -2.30054 | 17026 ft | 353 kts | 33° |
| 2026-04-19 23:39 | 53.61563 | -2.27476 | 17842 ft | 357 kts | 33° |
| 2026-04-19 23:39 | 53.63518 | -2.24868 | 18649 ft | 361 kts | 33° |
| 2026-04-19 23:39 | 53.65494 | -2.22228 | 19338 ft | 365 kts | 33° |
| 2026-04-19 23:40 | 53.67468 | -2.19593 | 20014 ft | 369 kts | 33° |
| 2026-04-19 23:40 | 53.69495 | -2.16909 | 20713 ft | 372 kts | 31° |
| 2026-04-19 23:40 | 53.71723 | -2.14737 | 21395 ft | 368 kts | 18° |
| 2026-04-19 23:40 | 53.74159 | -2.13458 | 22079 ft | 367 kts | 7° |
| 2026-04-19 23:41 | 53.76687 | -2.13093 | 22303 ft | 364 kts | 355° |
| 2026-04-19 23:41 | 53.79184 | -2.13713 | 22351 ft | 363 kts | 343° |
| 2026-04-19 23:41 | 53.81547 | -2.15185 | 22349 ft | 362 kts | 336° |
| 2026-04-19 23:41 | 53.83880 | -2.16808 | 22356 ft | 363 kts | 336° |
| 2026-04-19 23:42 | 53.86220 | -2.18418 | 22358 ft | 363 kts | 336° |
| 2026-04-19 23:42 | 53.88561 | -2.20016 | 22355 ft | 363 kts | 336° |
| 2026-04-19 23:42 | 53.90903 | -2.21612 | 22356 ft | 363 kts | 336° |
| 2026-04-19 23:42 | 53.93246 | -2.23212 | 22355 ft | 363 kts | 336° |
| 2026-04-19 23:43 | 53.95586 | -2.24818 | 22353 ft | 363 kts | 336° |
| 2026-04-19 23:43 | 53.97926 | -2.26429 | 22369 ft | 363 kts | 337° |
| 2026-04-19 23:43 | 54.00239 | -2.28025 | 22362 ft | 363 kts | 337° |
| 2026-04-19 23:43 | 54.02583 | -2.29637 | 22361 ft | 364 kts | 337° |
| 2026-04-19 23:44 | 54.04929 | -2.31249 | 22357 ft | 364 kts | 337° |
| 2026-04-19 23:44 | 54.07276 | -2.32868 | 22361 ft | 364 kts | 337° |
| 2026-04-19 23:44 | 54.09622 | -2.34496 | 22360 ft | 364 kts | 337° |
| 2026-04-19 23:44 | 54.11963 | -2.36126 | 22353 ft | 364 kts | 337° |
| 2026-04-19 23:45 | 54.14313 | -2.37762 | 22355 ft | 364 kts | 337° |
| 2026-04-19 23:45 | 54.16658 | -2.39392 | 22354 ft | 364 kts | 337° |
| 2026-04-19 23:45 | 54.19009 | -2.41023 | 22359 ft | 364 kts | 337° |
| 2026-04-19 23:45 | 54.21357 | -2.42655 | 22363 ft | 364 kts | 337° |
| 2026-04-19 23:46 | 54.23706 | -2.44286 | 22372 ft | 365 kts | 337° |
| 2026-04-19 23:46 | 54.26059 | -2.45921 | 22362 ft | 365 kts | 337° |
| 2026-04-19 23:46 | 54.28385 | -2.47542 | 22360 ft | 366 kts | 337° |
| 2026-04-19 23:46 | 54.30738 | -2.49187 | 22359 ft | 366 kts | 337° |
| 2026-04-19 23:47 | 54.33098 | -2.50839 | 22357 ft | 366 kts | 337° |
| 2026-04-19 23:47 | 54.35455 | -2.52489 | 22357 ft | 366 kts | 337° |
| 2026-04-19 23:47 | 54.37816 | -2.54145 | 22353 ft | 366 kts | 337° |
| 2026-04-19 23:47 | 54.40176 | -2.55803 | 22355 ft | 366 kts | 337° |
| 2026-04-19 23:48 | 54.42536 | -2.57464 | 22355 ft | 366 kts | 337° |
| 2026-04-19 23:48 | 54.44897 | -2.59131 | 22357 ft | 367 kts | 337° |
| 2026-04-19 23:48 | 54.47255 | -2.60795 | 22365 ft | 367 kts | 337° |
| 2026-04-19 23:48 | 54.49616 | -2.62456 | 22364 ft | 367 kts | 337° |
| 2026-04-19 23:49 | 54.51982 | -2.64117 | 22361 ft | 367 kts | 337° |
| 2026-04-19 23:49 | 54.54347 | -2.65788 | 22361 ft | 368 kts | 337° |
| 2026-04-19 23:49 | 54.56681 | -2.67448 | 22361 ft | 368 kts | 337° |
| 2026-04-19 23:49 | 54.59047 | -2.69132 | 22341 ft | 367 kts | 337° |
| 2026-04-19 23:50 | 54.61396 | -2.70803 | 22367 ft | 364 kts | 337° |
| 2026-04-19 23:50 | 54.63735 | -2.72467 | 22359 ft | 364 kts | 337° |
| 2026-04-19 23:50 | 54.66076 | -2.74134 | 22356 ft | 364 kts | 337° |
| 2026-04-19 23:50 | 54.68413 | -2.75799 | 22359 ft | 363 kts | 337° |
| 2026-04-19 23:51 | 54.70751 | -2.77463 | 22361 ft | 363 kts | 337° |
| 2026-04-19 23:51 | 54.73089 | -2.79131 | 22363 ft | 364 kts | 337° |
| 2026-04-19 23:51 | 54.75429 | -2.80808 | 22353 ft | 365 kts | 337° |
| 2026-04-19 23:51 | 54.77773 | -2.82494 | 22359 ft | 365 kts | 337° |
| 2026-04-19 23:52 | 54.80116 | -2.84183 | 22358 ft | 365 kts | 337° |
| 2026-04-19 23:52 | 54.82459 | -2.85875 | 22356 ft | 365 kts | 337° |
| 2026-04-19 23:52 | 54.84802 | -2.87564 | 22360 ft | 365 kts | 337° |
| 2026-04-19 23:52 | 54.87117 | -2.89230 | 22361 ft | 365 kts | 337° |
| 2026-04-19 23:53 | 54.89461 | -2.90917 | 22361 ft | 365 kts | 337° |
| 2026-04-19 23:53 | 54.91807 | -2.92609 | 22360 ft | 365 kts | 337° |
| 2026-04-19 23:53 | 54.94153 | -2.94307 | 22359 ft | 365 kts | 337° |
| 2026-04-19 23:53 | 54.96497 | -2.96006 | 22357 ft | 365 kts | 337° |
| 2026-04-19 23:54 | 54.98843 | -2.97709 | 22363 ft | 365 kts | 337° |
| 2026-04-19 23:54 | 55.01191 | -2.99407 | 22360 ft | 366 kts | 337° |
| 2026-04-19 23:54 | 55.03527 | -3.01095 | 22136 ft | 361 kts | 337° |
| 2026-04-19 23:54 | 55.05834 | -3.02770 | 21865 ft | 358 kts | 337° |
| 2026-04-19 23:55 | 55.08117 | -3.04434 | 21606 ft | 351 kts | 337° |
| 2026-04-19 23:55 | 55.10351 | -3.06068 | 21186 ft | 346 kts | 337° |
| 2026-04-19 23:55 | 55.12554 | -3.07680 | 20758 ft | 341 kts | 337° |
| 2026-04-19 23:55 | 55.14732 | -3.09277 | 20317 ft | 337 kts | 337° |
| 2026-04-19 23:56 | 55.16922 | -3.10886 | 19517 ft | 348 kts | 337° |
| 2026-04-19 23:56 | 55.19183 | -3.12544 | 18595 ft | 358 kts | 337° |
| 2026-04-19 23:56 | 55.21480 | -3.14228 | 17651 ft | 366 kts | 337° |
| 2026-04-19 23:56 | 55.23793 | -3.15928 | 17443 ft | 354 kts | 338° |
| 2026-04-19 23:57 | 55.26016 | -3.17563 | 17302 ft | 339 kts | 338° |
| 2026-04-19 23:57 | 55.28150 | -3.19122 | 17165 ft | 326 kts | 339° |
| 2026-04-19 23:57 | 55.30305 | -3.20049 | 17030 ft | 314 kts | 353° |
| 2026-04-19 23:57 | 55.32450 | -3.20016 | 16897 ft | 304 kts | 4° |
| 2026-04-19 23:58 | 55.34523 | -3.19684 | 16721 ft | 296 kts | 4° |
| 2026-04-19 23:58 | 55.36561 | -3.19366 | 16395 ft | 293 kts | 4° |
| 2026-04-19 23:58 | 55.38581 | -3.19055 | 16046 ft | 291 kts | 3° |
| 2026-04-19 23:58 | 55.40591 | -3.18751 | 15702 ft | 289 kts | 3° |
| 2026-04-19 23:59 | 55.42592 | -3.18445 | 15364 ft | 288 kts | 3° |
| 2026-04-19 23:59 | 55.44585 | -3.18135 | 15008 ft | 287 kts | 3° |
| 2026-04-19 23:59 | 55.46568 | -3.17824 | 14685 ft | 286 kts | 3° |
| 2026-04-19 23:59 | 55.48545 | -3.17512 | 14355 ft | 285 kts | 3° |
| 2026-04-20 00:00 | 55.50513 | -3.17202 | 14005 ft | 284 kts | 3° |
| 2026-04-20 00:00 | 55.52449 | -3.16899 | 13631 ft | 283 kts | 3° |
| 2026-04-20 00:00 | 55.54403 | -3.16593 | 13271 ft | 281 kts | 3° |
| 2026-04-20 00:00 | 55.56347 | -3.16285 | 12908 ft | 280 kts | 4° |
| 2026-04-20 00:01 | 55.58278 | -3.15979 | 12545 ft | 278 kts | 4° |
| 2026-04-20 00:01 | 55.60202 | -3.15677 | 12194 ft | 277 kts | 4° |
| 2026-04-20 00:01 | 55.64016 | -3.15084 | 11482 ft | 274 kts | 4° |
| 2026-04-20 00:02 | 55.65911 | -3.14787 | 10984 ft | 276 kts | 4° |
| 2026-04-20 00:02 | 55.67872 | -3.14479 | 10163 ft | 290 kts | 4° |
| 2026-04-20 00:02 | 55.69858 | -3.14162 | 9601 ft | 289 kts | 4° |
| 2026-04-20 00:02 | 55.71913 | -3.13835 | 8515 ft | 304 kts | 4° |
| 2026-04-20 00:03 | 55.74040 | -3.14075 | 7689 ft | 309 kts | 340° |
| 2026-04-20 00:03 | 55.75747 | -3.16155 | 7464 ft | 293 kts | 310° |
| 2026-04-20 00:03 | 55.76984 | -3.18893 | 7330 ft | 276 kts | 314° |
| 2026-04-20 00:03 | 55.78611 | -3.20440 | 7202 ft | 263 kts | 349° |
| 2026-04-20 00:04 | 55.80381 | -3.20121 | 7071 ft | 254 kts | 15° |
| 2026-04-20 00:04 | 55.81956 | -3.18860 | 6951 ft | 243 kts | 27° |
| 2026-04-20 00:04 | 55.83307 | -3.17153 | 6826 ft | 234 kts | 39° |
| 2026-04-20 00:04 | 55.84338 | -3.15037 | 6694 ft | 226 kts | 55° |
| 2026-04-20 00:05 | 55.84984 | -3.12529 | 6559 ft | 223 kts | 72° |
| 2026-04-20 00:05 | 55.85188 | -3.09810 | 6425 ft | 221 kts | 89° |
| 2026-04-20 00:05 | 55.85286 | -3.07138 | 6289 ft | 212 kts | 76° |
| 2026-04-20 00:05 | 55.85797 | -3.04751 | 6155 ft | 202 kts | 57° |
| 2026-04-20 00:06 | 55.86656 | -3.02841 | 6020 ft | 195 kts | 39° |
| 2026-04-20 00:06 | 55.87757 | -3.01504 | 5801 ft | 190 kts | 23° |
| 2026-04-20 00:06 | 55.89003 | -3.00795 | 5567 ft | 187 kts | 7° |
| 2026-04-20 00:06 | 55.90289 | -3.00727 | 5341 ft | 185 kts | 352° |
| 2026-04-20 00:07 | 55.91529 | -3.01288 | 5111 ft | 184 kts | 338° |
| 2026-04-20 00:07 | 55.92753 | -3.01890 | 5006 ft | 184 kts | 352° |
| 2026-04-20 00:07 | 55.94024 | -3.01910 | 4997 ft | 184 kts | 6° |
| 2026-04-20 00:07 | 55.95291 | -3.01603 | 4997 ft | 184 kts | 359° |
| 2026-04-20 00:08 | 55.96562 | -3.01803 | 5000 ft | 184 kts | 351° |
| 2026-04-20 00:08 | 55.97808 | -3.02153 | 4919 ft | 176 kts | 350° |
| 2026-04-20 00:08 | 55.98971 | -3.02492 | 4761 ft | 163 kts | 350° |
| 2026-04-20 00:08 | 56.00049 | -3.02794 | 4622 ft | 151 kts | 351° |
| 2026-04-20 00:09 | 56.01050 | -3.03077 | 4472 ft | 141 kts | 348° |
| 2026-04-20 00:09 | 56.01903 | -3.03850 | 4223 ft | 138 kts | 320° |
| 2026-04-20 00:09 | 56.02481 | -3.05216 | 3938 ft | 140 kts | 296° |
| 2026-04-20 00:09 | 56.02752 | -3.06898 | 3693 ft | 140 kts | 287° |
| 2026-04-20 00:10 | 56.02991 | -3.08565 | 3543 ft | 141 kts | 288° |
| 2026-04-20 00:10 | 56.03203 | -3.10277 | 3382 ft | 142 kts | 279° |
| 2026-04-20 00:10 | 56.03185 | -3.12055 | 3228 ft | 144 kts | 264° |
| 2026-04-20 00:10 | 56.02821 | -3.13734 | 3037 ft | 147 kts | 243° |
| 2026-04-20 00:11 | 56.02335 | -3.15326 | 2842 ft | 142 kts | 244° |
| 2026-04-20 00:11 | 56.01856 | -3.16828 | 2637 ft | 137 kts | 243° |
| 2026-04-20 00:11 | 56.01379 | -3.18285 | 2451 ft | 135 kts | 243° |
| 2026-04-20 00:11 | 56.00902 | -3.19724 | 2260 ft | 134 kts | 243° |
| 2026-04-20 00:12 | 56.00425 | -3.21153 | 2078 ft | 134 kts | 243° |
| 2026-04-20 00:12 | 55.99947 | -3.22577 | 1889 ft | 133 kts | 243° |
| 2026-04-20 00:12 | 55.99471 | -3.23994 | 1702 ft | 133 kts | 243° |
| 2026-04-20 00:12 | 55.98996 | -3.25405 | 1519 ft | 132 kts | 243° |
| 2026-04-20 00:13 | 55.98523 | -3.26797 | 1331 ft | 131 kts | 242° |
| 2026-04-20 00:13 | 55.98032 | -3.28165 | 1111 ft | 130 kts | 243° |
| 2026-04-20 00:13 | 55.97587 | -3.29556 | 985 ft | 129 kts | 245° |
| 2026-04-20 00:13 | 55.97139 | -3.30932 | 774 ft | 127 kts | 241° |
| 2026-04-20 00:14 | 55.96686 | -3.32276 | 585 ft | 125 kts | 239° |
| 2026-04-20 00:14 | 55.96235 | -3.33609 | 407 ft | 124 kts | 239° |
| 2026-04-20 00:14 | 55.95784 | -3.34929 | 253 ft | 124 kts | 238° |
| 2026-04-20 00:14 | 55.95340 | -3.36243 | 125 ft | 124 kts | 238° |
| 2026-04-20 00:15 | 55.94946 | -3.37409 | 112 ft | 89 kts | 239° |
| 2026-04-20 00:15 | 55.94726 | -3.38037 | 112 ft | 26 kts | 219° |
| 2026-04-20 00:15 | 55.94645 | -3.38007 | 115 ft | 8 kts | 150° |
| 2026-04-20 00:15 | 55.94594 | -3.37937 | 116 ft | 10 kts | 120° |
| 2026-04-20 00:16 | 55.94614 | -3.37817 | 113 ft | 12 kts | 58° |
| 2026-04-20 00:16 | 55.94661 | -3.37678 | 114 ft | 14 kts | 59° |
| 2026-04-20 00:16 | 55.94718 | -3.37512 | 115 ft | 17 kts | 58° |
| 2026-04-20 00:16 | 55.94783 | -3.37319 | 116 ft | 19 kts | 59° |
| 2026-04-20 00:17 | 55.94856 | -3.37102 | 116 ft | 21 kts | 58° |
| 2026-04-20 00:17 | 55.94922 | -3.36910 | 114 ft | 15 kts | 58° |
| 2026-04-20 00:17 | 55.94978 | -3.36743 | 113 ft | 17 kts | 58° |
| 2026-04-20 00:17 | 55.95042 | -3.36556 | 114 ft | 18 kts | 58° |
| 2026-04-20 00:18 | 55.95059 | -3.36403 | 116 ft | 13 kts | 144° |
| 2026-04-20 00:18 | 55.94995 | -3.36454 | 116 ft | 8 kts | 236° |
| 2026-04-20 00:18 | 55.94943 | -3.36453 | 115 ft | 9 kts | 150° |
| 2026-04-20 00:18 | 55.94920 | -3.36429 | 114 ft | 0 kts | 149° |
| 2026-04-20 00:19 | 55.94919 | -3.36428 | 114 ft | 0 kts | 150° |
| 2026-04-20 00:22 | 55.96048 | -3.01686 | 5010 ft | 182 kts | 353° |
| 2026-04-20 00:23 | 55.97277 | -3.01998 | 4951 ft | 182 kts | 350° |
| 2026-04-20 00:23 | 55.98310 | -3.02301 | 4860 ft | 171 kts | 350° |
| 2026-04-20 00:23 | 56.02781 | -3.13862 | 3026 ft | 143 kts | 243° |
| 2026-04-20 00:23 | 56.00843 | -3.19900 | 2242 ft | 133 kts | 243° |
| 2026-04-20 00:24 | 55.99200 | -3.24799 | 1595 ft | 133 kts | 243° |
| 2026-04-20 00:24 | 55.98728 | -3.26199 | 1416 ft | 130 kts | 243° |
| 2026-04-20 00:24 | 55.98256 | -3.27539 | 1205 ft | 131 kts | 240° |
| 2026-04-20 00:24 | 55.97795 | -3.28887 | 1058 ft | 127 kts | 244° |
| 2026-04-20 00:25 | 55.97367 | -3.30245 | 873 ft | 127 kts | 242° |
| 2026-04-20 00:25 | 55.96931 | -3.31545 | 687 ft | 126 kts | 242° |
| 2026-04-20 00:25 | 55.96486 | -3.32865 | 514 ft | 125 kts | 240° |
| 2026-04-20 00:25 | 55.96017 | -3.34237 | 343 ft | 123 kts | 238° |
| 2026-04-20 00:26 | 55.95551 | -3.35615 | 198 ft | 123 kts | 237° |
| 2026-04-20 00:26 | 55.95101 | -3.36948 | 115 ft | 109 kts | 239° |
| 2026-04-20 00:26 | 55.94817 | -3.37789 | 115 ft | 67 kts | 239° |
| 2026-04-20 00:26 | 55.94683 | -3.38051 | 115 ft | 15 kts | 166° |
| 2026-04-20 00:27 | 55.94645 | -3.38006 | 115 ft | 0 kts | 150° |
| 2026-04-20 00:27 | 55.95909 | -3.01660 | 5010 ft | 181 kts | 353° |
| 2026-04-20 00:28 | 55.98148 | -3.27836 | 1153 ft | 130 kts | 240° |
| 2026-04-20 00:28 | 55.99653 | -3.23454 | 1777 ft | 132 kts | 243° |
| 2026-04-20 00:28 | 55.96767 | -3.32034 | 610 ft | 124 kts | 241° |
| 2026-04-20 00:28 | 55.96164 | -3.33817 | 385 ft | 123 kts | 239° |
| 2026-04-20 00:29 | 56.01877 | -3.16764 | 2633 ft | 135 kts | 243° |
| 2026-04-20 00:29 | 56.01381 | -3.18343 | 21 ft | 90 kts | 246° |
| 2026-04-20 00:29 | 55.97077 | -3.31113 | 749 ft | 123 kts | 241° |
| 2026-04-20 00:30 | 55.95748 | -3.35040 | 242 ft | 122 kts | 238° |
| 2026-04-20 00:30 | 55.95375 | -3.36140 | 138 ft | 117 kts | 238° |
| 2026-04-20 00:30 | 55.95030 | -3.37161 | 111 ft | 96 kts | 239° |